createdAt,value
2023-04-30T00:00:56.031Z,0.00
2023-04-30T00:01:56.099Z,0.00
2023-04-30T00:02:56.184Z,0.00
2023-04-30T00:03:56.182Z,0.00
2023-04-30T00:04:56.081Z,0.00
2023-04-30T00:05:56.121Z,0.00
2023-04-30T00:06:56.105Z,0.00
2023-04-30T00:07:56.120Z,0.00
2023-04-30T00:08:56.132Z,0.00
2023-04-30T00:09:56.308Z,0.00
2023-04-30T00:10:56.160Z,0.00
2023-04-30T00:11:56.169Z,0.00
2023-04-30T00:12:56.183Z,0.00
2023-04-30T00:13:56.193Z,0.00
2023-04-30T00:14:56.228Z,0.00
2023-04-30T00:15:56.253Z,0.00
2023-04-30T00:16:56.234Z,0.00
2023-04-30T00:17:56.406Z,0.00
2023-04-30T00:18:56.253Z,0.00
2023-04-30T00:19:56.495Z,0.00
2023-04-30T00:20:56.283Z,0.00
2023-04-30T00:21:56.316Z,0.00
2023-04-30T00:22:56.308Z,0.00
2023-04-30T00:23:56.320Z,0.00
2023-04-30T00:24:56.329Z,0.00
2023-04-30T00:25:56.352Z,0.00
2023-04-30T00:26:56.375Z,0.00
2023-04-30T00:27:56.368Z,0.00
2023-04-30T00:28:56.389Z,0.00
2023-04-30T00:29:56.553Z,0.00
2023-04-30T00:30:56.408Z,0.00
2023-04-30T00:31:56.464Z,0.00
2023-04-30T00:32:56.445Z,0.00
2023-04-30T00:33:56.441Z,0.00
2023-04-30T00:34:56.452Z,0.00
2023-04-30T00:35:56.487Z,0.00
2023-04-30T00:36:56.479Z,0.00
2023-04-30T00:37:56.491Z,0.00
2023-04-30T00:38:56.500Z,0.00
2023-04-30T00:39:56.795Z,0.00
2023-04-30T00:40:56.523Z,0.00
2023-04-30T00:41:56.536Z,0.00
2023-04-30T00:42:56.550Z,0.00
2023-04-30T00:43:56.565Z,0.00
2023-04-30T00:44:56.571Z,0.00
2023-04-30T00:45:56.605Z,0.00
2023-04-30T00:46:56.598Z,0.00
2023-04-30T00:47:56.651Z,0.00
2023-04-30T00:48:56.629Z,0.00
2023-04-30T00:49:56.954Z,0.00
2023-04-30T00:50:56.644Z,0.00
2023-04-30T00:51:56.662Z,0.00
2023-04-30T00:52:56.671Z,0.00
2023-04-30T00:53:56.683Z,0.00
2023-04-30T00:54:56.693Z,0.00
2023-04-30T00:55:56.711Z,0.00
2023-04-30T00:56:56.725Z,0.00
2023-04-30T00:57:56.727Z,0.00
2023-04-30T00:58:56.741Z,0.00
2023-04-30T00:59:56.825Z,0.00
2023-04-30T01:00:56.796Z,0.00
2023-04-30T01:01:56.779Z,0.00
2023-04-30T01:02:56.835Z,0.00
2023-04-30T01:03:56.805Z,0.00
2023-04-30T01:04:56.822Z,0.00
2023-04-30T01:05:56.912Z,0.00
2023-04-30T01:06:56.838Z,0.00
2023-04-30T01:07:56.848Z,0.00
2023-04-30T01:08:56.859Z,0.00
2023-04-30T01:09:56.966Z,0.00
2023-04-30T01:10:56.893Z,0.00
2023-04-30T01:11:56.896Z,0.00
2023-04-30T01:12:56.906Z,0.00
2023-04-30T01:13:56.920Z,0.00
2023-04-30T01:14:56.950Z,0.00
2023-04-30T01:15:56.999Z,0.00
2023-04-30T01:16:56.964Z,0.00
2023-04-30T01:17:57.069Z,0.00
2023-04-30T01:18:57.107Z,0.00
2023-04-30T01:19:56.994Z,0.00
2023-04-30T01:20:56.999Z,0.00
2023-04-30T01:21:57.006Z,0.00
2023-04-30T01:22:57.046Z,0.00
2023-04-30T01:23:57.038Z,0.00
2023-04-30T01:24:57.066Z,0.00
2023-04-30T01:25:57.062Z,0.00
2023-04-30T01:26:57.075Z,0.00
2023-04-30T01:27:57.080Z,0.00
2023-04-30T01:28:57.094Z,0.00
2023-04-30T01:29:57.116Z,0.00
2023-04-30T01:30:57.153Z,0.00
2023-04-30T01:31:57.130Z,0.00
2023-04-30T01:32:57.157Z,0.00
2023-04-30T01:33:57.178Z,0.00
2023-04-30T01:34:57.163Z,0.00
2023-04-30T01:35:57.180Z,0.00
2023-04-30T01:36:57.184Z,0.00
2023-04-30T01:37:57.203Z,0.00
2023-04-30T01:38:57.208Z,0.00
2023-04-30T01:39:57.513Z,0.00
2023-04-30T01:40:57.235Z,0.00
2023-04-30T01:41:57.245Z,0.00
2023-04-30T01:42:57.257Z,0.00
2023-04-30T01:43:57.276Z,0.00
2023-04-30T01:44:57.285Z,0.00
2023-04-30T01:45:57.347Z,0.00
2023-04-30T01:46:57.302Z,0.00
2023-04-30T01:47:57.360Z,0.00
2023-04-30T01:48:57.326Z,0.00
2023-04-30T01:49:57.336Z,0.00
2023-04-30T01:50:57.346Z,0.00
2023-04-30T01:51:57.371Z,0.00
2023-04-30T01:52:57.376Z,0.00
2023-04-30T01:53:57.386Z,0.00
2023-04-30T01:54:57.399Z,0.00
2023-04-30T01:55:57.427Z,0.00
2023-04-30T01:56:57.422Z,0.00
2023-04-30T01:57:57.446Z,0.00
2023-04-30T01:58:57.446Z,0.00
2023-04-30T01:59:57.459Z,0.00
2023-04-30T02:00:57.470Z,0.00
2023-04-30T02:01:57.562Z,0.00
2023-04-30T02:02:57.558Z,0.00
2023-04-30T02:03:57.590Z,0.00
2023-04-30T02:04:57.516Z,0.00
2023-04-30T02:05:57.573Z,0.00
2023-04-30T02:06:57.538Z,0.00
2023-04-30T02:07:57.550Z,0.00
2023-04-30T02:08:57.559Z,0.00
2023-04-30T02:09:57.569Z,0.00
2023-04-30T02:10:57.592Z,0.00
2023-04-30T02:11:57.596Z,0.00
2023-04-30T02:12:57.611Z,0.00
2023-04-30T02:13:57.622Z,0.00
2023-04-30T02:14:57.622Z,0.00
2023-04-30T02:15:57.647Z,0.00
2023-04-30T02:16:57.646Z,0.00
2023-04-30T02:17:57.678Z,0.00
2023-04-30T02:18:57.667Z,0.00
2023-04-30T02:19:57.684Z,0.00
2023-04-30T02:20:57.696Z,0.00
2023-04-30T02:21:57.713Z,0.00
2023-04-30T02:22:57.720Z,0.00
2023-04-30T02:23:57.726Z,0.00
2023-04-30T02:24:57.738Z,0.00
2023-04-30T02:25:57.746Z,0.00
2023-04-30T02:26:57.762Z,0.00
2023-04-30T02:27:57.779Z,0.00
2023-04-30T02:28:57.779Z,0.00
2023-04-30T02:29:57.796Z,0.00
2023-04-30T02:30:57.822Z,0.00
2023-04-30T02:31:57.937Z,0.00
2023-04-30T02:32:57.865Z,0.00
2023-04-30T02:33:57.839Z,0.00
2023-04-30T02:34:57.847Z,0.00
2023-04-30T02:35:57.861Z,0.00
2023-04-30T02:36:57.866Z,0.00
2023-04-30T02:37:57.887Z,0.00
2023-04-30T02:38:57.889Z,0.00
2023-04-30T02:39:58.075Z,0.00
2023-04-30T02:40:57.913Z,0.00
2023-04-30T02:41:57.922Z,0.00
2023-04-30T02:42:57.933Z,0.00
2023-04-30T02:43:57.943Z,0.00
2023-04-30T02:44:57.971Z,0.00
2023-04-30T02:45:58.009Z,0.00
2023-04-30T02:46:57.997Z,0.00
2023-04-30T02:47:58.045Z,0.00
2023-04-30T02:48:58.000Z,0.00
2023-04-30T02:49:58.019Z,0.00
2023-04-30T02:50:58.023Z,0.00
2023-04-30T02:51:58.070Z,0.00
2023-04-30T02:52:58.047Z,0.00
2023-04-30T02:53:58.055Z,0.00
2023-04-30T02:54:58.066Z,0.00
2023-04-30T02:55:58.076Z,0.00
2023-04-30T02:56:58.082Z,0.00
2023-04-30T02:57:58.097Z,0.00
2023-04-30T02:58:58.109Z,0.00
2023-04-30T02:59:58.116Z,0.00
2023-04-30T03:00:58.183Z,0.00
2023-04-30T03:01:58.145Z,0.00
2023-04-30T03:02:58.210Z,0.00
2023-04-30T03:03:58.163Z,0.00
2023-04-30T03:04:58.175Z,0.00
2023-04-30T03:05:58.209Z,0.00
2023-04-30T03:06:58.192Z,0.00
2023-04-30T03:07:58.200Z,0.00
2023-04-30T03:08:58.219Z,0.00
2023-04-30T03:09:58.227Z,0.00
2023-04-30T03:10:58.240Z,0.00
2023-04-30T03:11:58.252Z,0.00
2023-04-30T03:12:58.255Z,0.00
2023-04-30T03:13:58.269Z,0.00
2023-04-30T03:14:58.284Z,0.00
2023-04-30T03:15:58.330Z,0.00
2023-04-30T03:16:58.300Z,0.00
2023-04-30T03:17:58.394Z,0.00
2023-04-30T03:18:58.332Z,0.00
2023-04-30T03:19:58.424Z,0.00
2023-04-30T03:20:58.341Z,0.00
2023-04-30T03:21:58.353Z,0.00
2023-04-30T03:22:58.362Z,0.00
2023-04-30T03:23:58.376Z,0.00
2023-04-30T03:24:58.388Z,0.00
2023-04-30T03:25:58.399Z,0.00
2023-04-30T03:26:58.408Z,0.00
2023-04-30T03:27:58.419Z,0.00
2023-04-30T03:28:58.435Z,0.00
2023-04-30T03:29:58.443Z,0.00
2023-04-30T03:30:58.450Z,5.63
2023-04-30T03:31:58.526Z,5.63
2023-04-30T03:32:58.499Z,5.63
2023-04-30T03:33:58.575Z,5.63
2023-04-30T03:34:58.496Z,5.63
2023-04-30T03:35:58.500Z,5.63
2023-04-30T03:36:58.525Z,5.63
2023-04-30T03:37:58.526Z,5.63
2023-04-30T03:38:58.540Z,11.25
2023-04-30T03:39:58.545Z,11.25
2023-04-30T03:40:58.557Z,11.25
2023-04-30T03:41:58.571Z,11.25
2023-04-30T03:42:58.582Z,11.25
2023-04-30T03:43:58.597Z,16.88
2023-04-30T03:44:58.600Z,16.88
2023-04-30T03:45:58.644Z,16.88
2023-04-30T03:46:58.621Z,16.88
2023-04-30T03:47:58.667Z,16.88
2023-04-30T03:48:58.638Z,22.50
2023-04-30T03:49:58.652Z,22.50
2023-04-30T03:50:58.664Z,22.50
2023-04-30T03:51:58.669Z,22.50
2023-04-30T03:52:58.680Z,28.13
2023-04-30T03:53:58.695Z,28.13
2023-04-30T03:54:58.704Z,28.13
2023-04-30T03:55:58.713Z,28.13
2023-04-30T03:56:58.723Z,33.75
2023-04-30T03:57:58.740Z,33.75
2023-04-30T03:58:58.742Z,33.75
2023-04-30T03:59:58.757Z,33.75
2023-04-30T04:00:58.770Z,39.38
2023-04-30T04:01:58.844Z,39.38
2023-04-30T04:02:58.829Z,39.38
2023-04-30T04:03:58.863Z,39.38
2023-04-30T04:04:58.805Z,45.00
2023-04-30T04:05:58.835Z,45.00
2023-04-30T04:06:58.825Z,45.00
2023-04-30T04:07:58.837Z,50.63
2023-04-30T04:08:58.847Z,50.63
2023-04-30T04:09:58.863Z,50.63
2023-04-30T04:10:58.867Z,50.63
2023-04-30T04:11:58.885Z,56.25
2023-04-30T04:12:58.891Z,56.25
2023-04-30T04:13:58.902Z,56.25
2023-04-30T04:14:58.911Z,56.25
2023-04-30T04:15:58.976Z,61.88
2023-04-30T04:16:58.929Z,61.88
2023-04-30T04:17:58.992Z,61.88
2023-04-30T04:18:58.951Z,67.50
2023-04-30T04:19:58.960Z,67.50
2023-04-30T04:20:58.972Z,67.50
2023-04-30T04:21:58.980Z,67.50
2023-04-30T04:22:58.991Z,67.50
2023-04-30T04:23:59.001Z,73.13
2023-04-30T04:24:59.022Z,73.13
2023-04-30T04:25:59.028Z,73.13
2023-04-30T04:26:59.031Z,73.13
2023-04-30T04:27:59.043Z,78.75
2023-04-30T04:28:59.048Z,78.75
2023-04-30T04:29:59.058Z,78.75
2023-04-30T04:30:59.072Z,78.75
2023-04-30T04:31:59.186Z,84.38
2023-04-30T04:32:59.118Z,84.38
2023-04-30T04:33:59.101Z,84.38
2023-04-30T04:34:59.110Z,84.38
2023-04-30T04:35:59.119Z,90.00
2023-04-30T04:36:59.141Z,90.00
2023-04-30T04:37:59.141Z,90.00
2023-04-30T04:38:59.148Z,90.00
2023-04-30T04:39:59.158Z,90.00
2023-04-30T04:40:59.165Z,95.63
2023-04-30T04:41:59.185Z,95.63
2023-04-30T04:42:59.191Z,95.63
2023-04-30T04:43:59.208Z,95.63
2023-04-30T04:44:59.208Z,101.25
2023-04-30T04:45:59.277Z,101.25
2023-04-30T04:46:59.238Z,101.25
2023-04-30T04:47:59.274Z,101.25
2023-04-30T04:48:59.254Z,101.25
2023-04-30T04:49:59.265Z,106.88
2023-04-30T04:50:59.273Z,106.88
2023-04-30T04:51:59.280Z,106.88
2023-04-30T04:52:59.302Z,106.88
2023-04-30T04:53:59.303Z,112.50
2023-04-30T04:54:59.310Z,112.50
2023-04-30T04:55:59.321Z,112.50
2023-04-30T04:56:59.332Z,112.50
2023-04-30T04:57:59.341Z,112.50
2023-04-30T04:58:59.349Z,118.13
2023-04-30T04:59:59.366Z,118.13
2023-04-30T05:00:59.379Z,118.13
2023-04-30T05:01:59.393Z,118.13
2023-04-30T05:02:59.448Z,123.75
2023-04-30T05:03:59.558Z,123.75
2023-04-30T05:04:59.415Z,129.38
2023-04-30T05:05:59.503Z,129.38
2023-04-30T05:06:59.437Z,129.38
2023-04-30T05:07:59.444Z,140.63
2023-04-30T05:08:59.452Z,135.00
2023-04-30T05:09:59.467Z,129.38
2023-04-30T05:10:59.476Z,135.00
2023-04-30T05:11:59.487Z,146.25
2023-04-30T05:12:59.498Z,140.63
2023-04-30T05:13:59.511Z,135.00
2023-04-30T05:14:59.517Z,135.00
2023-04-30T05:15:59.548Z,135.00
2023-04-30T05:16:59.541Z,135.00
2023-04-30T05:17:59.608Z,140.63
2023-04-30T05:18:59.559Z,140.63
2023-04-30T05:19:59.570Z,135.00
2023-04-30T05:20:59.585Z,140.63
2023-04-30T05:21:59.594Z,140.63
2023-04-30T05:22:59.627Z,146.25
2023-04-30T05:23:59.625Z,140.63
2023-04-30T05:24:59.625Z,146.25
2023-04-30T05:25:59.637Z,151.88
2023-04-30T05:26:59.648Z,151.88
2023-04-30T05:27:59.667Z,151.88
2023-04-30T05:28:59.682Z,146.25
2023-04-30T05:29:59.679Z,146.25
2023-04-30T05:30:59.686Z,146.25
2023-04-30T05:31:59.703Z,151.88
2023-04-30T05:32:59.738Z,151.88
2023-04-30T05:33:59.720Z,157.50
2023-04-30T05:34:59.727Z,174.38
2023-04-30T05:35:59.740Z,180.00
2023-04-30T05:36:59.748Z,174.38
2023-04-30T05:37:59.765Z,168.75
2023-04-30T05:38:59.773Z,168.75
2023-04-30T05:39:59.794Z,168.75
2023-04-30T05:40:59.793Z,174.38
2023-04-30T05:41:59.805Z,174.38
2023-04-30T05:42:59.818Z,174.38
2023-04-30T05:43:59.826Z,180.00
2023-04-30T05:44:59.837Z,180.00
2023-04-30T05:45:59.862Z,180.00
2023-04-30T05:46:59.856Z,180.00
2023-04-30T05:47:59.918Z,185.63
2023-04-30T05:48:59.879Z,185.63
2023-04-30T05:49:59.887Z,196.88
2023-04-30T05:50:59.903Z,202.50
2023-04-30T05:51:59.926Z,225.00
2023-04-30T05:52:59.922Z,264.38
2023-04-30T05:53:59.952Z,253.13
2023-04-30T05:54:59.951Z,247.50
2023-04-30T05:55:59.954Z,241.88
2023-04-30T05:56:59.971Z,241.88
2023-04-30T05:57:59.987Z,241.88
2023-04-30T05:58:59.999Z,225.00
2023-04-30T06:00:00.004Z,208.13
2023-04-30T06:01:00.017Z,202.50
2023-04-30T06:02:00.111Z,208.13
2023-04-30T06:03:00.105Z,247.50
2023-04-30T06:04:00.050Z,236.25
2023-04-30T06:05:00.117Z,236.25
2023-04-30T06:06:00.189Z,225.00
2023-04-30T06:07:00.088Z,230.63
2023-04-30T06:08:00.120Z,236.25
2023-04-30T06:09:00.130Z,219.38
2023-04-30T06:10:00.210Z,247.50
2023-04-30T06:11:00.131Z,258.75
2023-04-30T06:12:00.144Z,286.88
2023-04-30T06:13:00.153Z,275.63
2023-04-30T06:14:00.167Z,241.88
2023-04-30T06:15:00.176Z,275.63
2023-04-30T06:16:00.216Z,298.13
2023-04-30T06:17:00.258Z,286.88
2023-04-30T06:18:00.299Z,315.00
2023-04-30T06:19:00.226Z,343.13
2023-04-30T06:20:00.249Z,438.75
2023-04-30T06:21:00.248Z,658.13
2023-04-30T06:22:00.263Z,838.13
2023-04-30T06:23:00.283Z,883.13
2023-04-30T06:24:00.284Z,883.13
2023-04-30T06:25:00.300Z,894.38
2023-04-30T06:26:00.319Z,911.25
2023-04-30T06:27:00.328Z,922.50
2023-04-30T06:28:00.348Z,922.50
2023-04-30T06:29:00.352Z,933.75
2023-04-30T06:30:00.365Z,945.00
2023-04-30T06:31:00.408Z,956.25
2023-04-30T06:32:00.390Z,967.50
2023-04-30T06:33:00.413Z,984.38
2023-04-30T06:34:00.433Z,990.00
2023-04-30T06:35:00.432Z,1006.88
2023-04-30T06:36:00.447Z,1018.13
2023-04-30T06:37:00.457Z,1029.38
2023-04-30T06:38:00.478Z,1029.38
2023-04-30T06:39:00.494Z,1051.88
2023-04-30T06:40:00.527Z,1051.88
2023-04-30T06:41:00.531Z,1051.88
2023-04-30T06:42:00.542Z,1085.63
2023-04-30T06:43:00.556Z,1096.88
2023-04-30T06:44:00.568Z,1108.13
2023-04-30T06:45:00.614Z,1113.75
2023-04-30T06:46:00.649Z,1130.63
2023-04-30T06:47:00.619Z,1141.88
2023-04-30T06:48:00.734Z,1136.25
2023-04-30T06:49:00.652Z,1170.00
2023-04-30T06:50:00.710Z,1175.63
2023-04-30T06:51:00.689Z,1198.13
2023-04-30T06:52:00.702Z,1186.88
2023-04-30T06:53:00.721Z,1203.75
2023-04-30T06:54:00.754Z,1220.63
2023-04-30T06:55:00.757Z,1231.88
2023-04-30T06:56:00.781Z,1243.13
2023-04-30T06:57:00.792Z,1254.38
2023-04-30T06:58:00.829Z,1265.63
2023-04-30T06:59:00.829Z,1276.88
2023-04-30T07:00:00.854Z,1288.13
2023-04-30T07:01:00.992Z,1305.00
2023-04-30T07:02:01.203Z,1316.25
2023-04-30T07:03:00.980Z,1327.50
2023-04-30T07:04:00.941Z,1333.13
2023-04-30T07:05:00.937Z,1350.00
2023-04-30T07:06:00.991Z,1355.63
2023-04-30T07:07:00.975Z,1361.25
2023-04-30T07:08:00.989Z,1361.25
2023-04-30T07:09:01.039Z,1372.50
2023-04-30T07:10:01.028Z,1395.00
2023-04-30T07:11:01.045Z,1400.63
2023-04-30T07:12:01.086Z,1411.88
2023-04-30T07:13:01.090Z,1198.13
2023-04-30T07:14:01.141Z,1428.75
2023-04-30T07:15:01.120Z,1468.13
2023-04-30T07:16:01.215Z,1485.00
2023-04-30T07:17:01.161Z,1479.38
2023-04-30T07:18:01.199Z,1085.63
2023-04-30T07:19:01.197Z,410.63
2023-04-30T07:20:01.217Z,1501.88
2023-04-30T07:21:01.243Z,1496.25
2023-04-30T07:22:01.267Z,1203.75
2023-04-30T07:23:01.282Z,1490.63
2023-04-30T07:24:01.300Z,1546.88
2023-04-30T07:25:01.319Z,1558.13
2023-04-30T07:26:01.339Z,1569.38
2023-04-30T07:27:01.355Z,1580.63
2023-04-30T07:28:01.377Z,1530.00
2023-04-30T07:29:01.398Z,1575.00
2023-04-30T07:30:01.430Z,1608.75
2023-04-30T07:31:01.455Z,1012.50
2023-04-30T07:32:01.501Z,1625.63
2023-04-30T07:33:01.505Z,1631.25
2023-04-30T07:34:01.500Z,1653.75
2023-04-30T07:35:01.534Z,1620.00
2023-04-30T07:36:01.551Z,1659.38
2023-04-30T07:37:01.558Z,1676.25
2023-04-30T07:38:01.592Z,1721.25
2023-04-30T07:39:01.598Z,1721.25
2023-04-30T07:40:01.618Z,1665.00
2023-04-30T07:41:01.643Z,1670.63
2023-04-30T07:42:01.664Z,1687.50
2023-04-30T07:43:01.678Z,781.88
2023-04-30T07:44:01.710Z,354.38
2023-04-30T07:45:01.723Z,331.88
2023-04-30T07:46:01.778Z,1811.25
2023-04-30T07:47:01.764Z,680.63
2023-04-30T07:48:01.884Z,1749.38
2023-04-30T07:49:01.801Z,1080.00
2023-04-30T07:50:01.834Z,1743.75
2023-04-30T07:51:01.847Z,1749.38
2023-04-30T07:52:01.875Z,1760.63
2023-04-30T07:53:01.886Z,1755.00
2023-04-30T07:54:01.906Z,1777.50
2023-04-30T07:55:01.957Z,1777.50
2023-04-30T07:56:01.948Z,1788.75
2023-04-30T07:57:01.969Z,1794.38
2023-04-30T07:58:01.985Z,1777.50
2023-04-30T07:59:02.023Z,1800.00
2023-04-30T08:00:02.029Z,1816.88
2023-04-30T08:01:02.051Z,1822.50
2023-04-30T08:02:02.133Z,1822.50
2023-04-30T08:03:02.197Z,1828.13
2023-04-30T08:04:02.203Z,1839.38
2023-04-30T08:05:02.160Z,1850.63
2023-04-30T08:06:02.242Z,1715.63
2023-04-30T08:07:02.187Z,1085.63
2023-04-30T08:08:02.212Z,427.50
2023-04-30T08:09:02.222Z,264.38
2023-04-30T08:10:02.244Z,236.25
2023-04-30T08:11:02.262Z,230.63
2023-04-30T08:12:02.285Z,236.25
2023-04-30T08:13:02.303Z,236.25
2023-04-30T08:14:02.325Z,236.25
2023-04-30T08:15:02.345Z,236.25
2023-04-30T08:16:02.383Z,236.25
2023-04-30T08:17:02.530Z,236.25
2023-04-30T08:18:02.421Z,236.25
2023-04-30T08:19:02.425Z,236.25
2023-04-30T08:20:02.441Z,236.25
2023-04-30T08:21:02.464Z,236.25
2023-04-30T08:22:02.484Z,236.25
2023-04-30T08:23:02.515Z,241.88
2023-04-30T08:24:02.517Z,241.88
2023-04-30T08:25:02.545Z,247.50
2023-04-30T08:26:02.551Z,247.50
2023-04-30T08:27:02.567Z,247.50
2023-04-30T08:28:02.590Z,253.13
2023-04-30T08:29:02.605Z,253.13
2023-04-30T08:30:02.622Z,253.13
2023-04-30T08:31:02.639Z,247.50
2023-04-30T08:32:02.702Z,247.50
2023-04-30T08:33:02.709Z,241.88
2023-04-30T08:34:02.684Z,241.88
2023-04-30T08:35:02.704Z,241.88
2023-04-30T08:36:02.732Z,247.50
2023-04-30T08:37:02.745Z,247.50
2023-04-30T08:38:02.750Z,253.13
2023-04-30T08:39:02.765Z,253.13
2023-04-30T08:40:02.791Z,253.13
2023-04-30T08:41:02.810Z,258.75
2023-04-30T08:42:02.818Z,264.38
2023-04-30T08:43:02.826Z,258.75
2023-04-30T08:44:02.846Z,253.13
2023-04-30T08:45:02.867Z,253.13
2023-04-30T08:46:02.929Z,253.13
2023-04-30T08:47:02.897Z,247.50
2023-04-30T08:48:02.963Z,247.50
2023-04-30T08:49:02.936Z,258.75
2023-04-30T08:50:02.961Z,253.13
2023-04-30T08:51:02.958Z,253.13
2023-04-30T08:52:02.988Z,253.13
2023-04-30T08:53:02.993Z,258.75
2023-04-30T08:54:03.013Z,264.38
2023-04-30T08:55:03.015Z,258.75
2023-04-30T08:56:03.031Z,258.75
2023-04-30T08:57:03.048Z,258.75
2023-04-30T08:58:03.075Z,258.75
2023-04-30T08:59:03.082Z,264.38
2023-04-30T09:00:03.096Z,258.75
2023-04-30T09:01:03.202Z,258.75
2023-04-30T09:02:03.244Z,258.75
2023-04-30T09:03:03.208Z,264.38
2023-04-30T09:04:03.338Z,264.38
2023-04-30T09:05:03.175Z,264.38
2023-04-30T09:06:03.204Z,258.75
2023-04-30T09:07:04.498Z,264.38
2023-04-30T09:08:04.432Z,264.38
2023-04-30T09:09:03.229Z,264.38
2023-04-30T09:10:03.242Z,264.38
2023-04-30T09:11:03.257Z,264.38
2023-04-30T09:12:03.273Z,264.38
2023-04-30T09:13:03.295Z,270.00
2023-04-30T09:14:03.325Z,270.00
2023-04-30T09:15:03.320Z,270.00
2023-04-30T09:16:03.365Z,270.00
2023-04-30T09:17:03.350Z,270.00
2023-04-30T09:18:03.385Z,275.63
2023-04-30T09:19:03.388Z,270.00
2023-04-30T09:20:03.390Z,270.00
2023-04-30T09:21:03.408Z,270.00
2023-04-30T09:22:03.432Z,270.00
2023-04-30T09:23:03.461Z,270.00
2023-04-30T09:24:03.467Z,275.63
2023-04-30T09:25:03.492Z,270.00
2023-04-30T09:26:03.487Z,264.38
2023-04-30T09:27:03.513Z,264.38
2023-04-30T09:28:03.515Z,258.75
2023-04-30T09:29:03.785Z,258.75
2023-04-30T09:30:03.563Z,264.38
2023-04-30T09:31:03.606Z,264.38
2023-04-30T09:32:03.790Z,264.38
2023-04-30T09:33:03.637Z,264.38
2023-04-30T09:34:03.610Z,264.38
2023-04-30T09:35:03.617Z,264.38
2023-04-30T09:36:03.653Z,264.38
2023-04-30T09:37:03.654Z,264.38
2023-04-30T09:38:03.667Z,264.38
2023-04-30T09:39:03.688Z,264.38
2023-04-30T09:40:03.696Z,264.38
2023-04-30T09:41:03.713Z,264.38
2023-04-30T09:42:03.728Z,264.38
2023-04-30T09:43:03.743Z,270.00
2023-04-30T09:44:03.779Z,270.00
2023-04-30T09:45:03.774Z,270.00
2023-04-30T09:46:03.791Z,275.63
2023-04-30T09:47:03.905Z,281.25
2023-04-30T09:48:16.460Z,281.25
2023-04-30T09:49:03.840Z,292.50
2023-04-30T09:50:03.867Z,292.50
2023-04-30T09:51:03.879Z,315.00
2023-04-30T09:52:03.881Z,433.13
2023-04-30T09:53:03.903Z,922.50
2023-04-30T09:54:03.921Z,1710.00
2023-04-30T09:55:03.930Z,2345.63
2023-04-30T09:56:03.952Z,2469.38
2023-04-30T09:57:03.962Z,1996.88
2023-04-30T09:58:03.977Z,1276.88
2023-04-30T09:59:03.994Z,838.13
2023-04-30T10:00:04.013Z,506.25
2023-04-30T10:01:04.057Z,742.50
2023-04-30T10:02:04.050Z,1845.00
2023-04-30T10:03:04.090Z,2070.00
2023-04-30T10:04:04.176Z,1378.13
2023-04-30T10:05:04.105Z,1215.00
2023-04-30T10:06:04.142Z,1890.00
2023-04-30T10:07:04.156Z,2514.38
2023-04-30T10:08:04.154Z,2469.38
2023-04-30T10:09:04.175Z,1783.13
2023-04-30T10:10:04.226Z,894.38
2023-04-30T10:11:04.219Z,466.88
2023-04-30T10:12:04.237Z,832.50
2023-04-30T10:13:05.875Z,1710.00
2023-04-30T10:14:04.268Z,2452.50
2023-04-30T10:15:04.292Z,2643.75
2023-04-30T10:16:04.362Z,2677.50
2023-04-30T10:17:04.335Z,2688.75
2023-04-30T10:18:04.376Z,2705.63
2023-04-30T10:19:04.376Z,2700.00
2023-04-30T10:20:04.408Z,2700.00
2023-04-30T10:21:04.424Z,2688.75
2023-04-30T10:22:04.444Z,2683.13
2023-04-30T10:23:04.463Z,2683.13
2023-04-30T10:24:04.487Z,2677.50
2023-04-30T10:25:04.531Z,2677.50
2023-04-30T10:26:04.540Z,2666.25
2023-04-30T10:27:04.556Z,2660.63
2023-04-30T10:28:05.082Z,2660.63
2023-04-30T10:29:04.603Z,2649.38
2023-04-30T10:30:04.645Z,2655.00
2023-04-30T10:31:04.654Z,2638.13
2023-04-30T10:32:04.696Z,2615.63
2023-04-30T10:33:04.741Z,2621.25
2023-04-30T10:34:04.736Z,2604.38
2023-04-30T10:35:04.759Z,2593.13
2023-04-30T10:36:04.783Z,2593.13
2023-04-30T10:37:04.812Z,2581.88
2023-04-30T10:38:04.837Z,2576.25
2023-04-30T10:39:04.873Z,2565.00
2023-04-30T10:40:04.903Z,2565.00
2023-04-30T10:41:04.918Z,2565.00
2023-04-30T10:42:04.954Z,2559.38
2023-04-30T10:43:04.973Z,2565.00
2023-04-30T10:44:05.011Z,2542.50
2023-04-30T10:45:05.026Z,2536.88
2023-04-30T10:46:05.131Z,2525.63
2023-04-30T10:47:05.084Z,2548.13
2023-04-30T10:48:05.161Z,2548.13
2023-04-30T10:49:05.143Z,2542.50
2023-04-30T10:50:05.180Z,2531.25
2023-04-30T10:51:05.191Z,2520.00
2023-04-30T10:52:05.265Z,2525.63
2023-04-30T10:53:05.250Z,2531.25
2023-04-30T10:54:05.276Z,2514.38
2023-04-30T10:55:05.303Z,2503.13
2023-04-30T10:56:05.343Z,2491.88
2023-04-30T10:57:05.368Z,2491.88
2023-04-30T10:58:05.414Z,2480.63
2023-04-30T10:59:05.419Z,2469.38
2023-04-30T11:00:05.462Z,2469.38
2023-04-30T11:01:05.616Z,2469.38
2023-04-30T11:02:05.505Z,2463.75
2023-04-30T11:03:05.594Z,2486.25
2023-04-30T11:04:05.571Z,2480.63
2023-04-30T11:05:05.716Z,2480.63
2023-04-30T11:06:05.657Z,2475.00
2023-04-30T11:07:05.652Z,2486.25
2023-04-30T11:08:05.680Z,2475.00
2023-04-30T11:09:05.719Z,2469.38
2023-04-30T11:10:05.739Z,2486.25
2023-04-30T11:11:05.773Z,2486.25
2023-04-30T11:12:05.803Z,2491.88
2023-04-30T11:13:05.833Z,2514.38
2023-04-30T11:14:05.857Z,2531.25
2023-04-30T11:15:05.885Z,2565.00
2023-04-30T11:16:06.007Z,2610.00
2023-04-30T11:17:05.958Z,2705.63
2023-04-30T11:18:06.035Z,2812.50
2023-04-30T11:19:06.004Z,2936.25
2023-04-30T11:20:06.035Z,3082.50
2023-04-30T11:21:06.064Z,3200.63
2023-04-30T11:22:06.100Z,3240.00
2023-04-30T11:23:06.124Z,3369.38
2023-04-30T11:24:06.156Z,3403.13
2023-04-30T11:25:06.202Z,3594.38
2023-04-30T11:26:06.235Z,3881.25
2023-04-30T11:27:06.289Z,3976.88
2023-04-30T11:28:06.278Z,3903.75
2023-04-30T11:29:06.360Z,3870.00
2023-04-30T11:30:06.335Z,3678.75
2023-04-30T11:31:06.421Z,3622.50
2023-04-30T11:32:06.394Z,3729.38
2023-04-30T11:33:06.485Z,3673.13
2023-04-30T11:34:06.454Z,3532.50
2023-04-30T11:35:06.534Z,3673.13
2023-04-30T11:36:06.511Z,3903.75
2023-04-30T11:37:06.548Z,4297.50
2023-04-30T11:38:06.574Z,4455.00
2023-04-30T11:39:06.602Z,4398.75
2023-04-30T11:40:06.634Z,4336.88
2023-04-30T11:41:06.670Z,4207.50
2023-04-30T11:42:06.702Z,4083.75
2023-04-30T11:43:06.721Z,4089.38
2023-04-30T11:44:06.756Z,4072.50
2023-04-30T11:45:06.809Z,3971.25
2023-04-30T11:46:06.908Z,3915.00
2023-04-30T11:47:06.886Z,3965.63
2023-04-30T11:48:06.966Z,4072.50
2023-04-30T11:49:06.907Z,4117.50
2023-04-30T11:50:06.943Z,4230.00
2023-04-30T11:51:06.973Z,4241.25
2023-04-30T11:52:07.000Z,4286.25
2023-04-30T11:53:07.030Z,4404.38
2023-04-30T11:54:07.061Z,4190.63
2023-04-30T11:55:07.090Z,4185.00
2023-04-30T11:56:07.136Z,4269.38
2023-04-30T11:57:07.150Z,4218.75
2023-04-30T11:58:07.183Z,4263.75
2023-04-30T11:59:07.205Z,4162.50
2023-04-30T12:00:07.235Z,4038.75
2023-04-30T12:01:07.263Z,4156.88
2023-04-30T12:02:07.374Z,4201.88
2023-04-30T12:03:07.381Z,4224.38
2023-04-30T12:04:07.426Z,4168.13
2023-04-30T12:05:07.383Z,4106.25
2023-04-30T12:06:07.561Z,4156.88
2023-04-30T12:07:07.440Z,4252.50
2023-04-30T12:08:07.470Z,4404.38
2023-04-30T12:09:07.496Z,4696.88
2023-04-30T12:10:07.538Z,4809.38
2023-04-30T12:11:07.556Z,4438.13
2023-04-30T12:12:07.590Z,3976.88
2023-04-30T12:13:07.614Z,4083.75
2023-04-30T12:14:07.747Z,4246.88
2023-04-30T12:15:07.676Z,4286.25
2023-04-30T12:16:07.742Z,4314.38
2023-04-30T12:17:07.737Z,4252.50
2023-04-30T12:18:07.771Z,4044.38
2023-04-30T12:19:07.790Z,4016.25
2023-04-30T12:20:07.843Z,4010.63
2023-04-30T12:21:07.856Z,3926.25
2023-04-30T12:22:07.879Z,3926.25
2023-04-30T12:23:07.909Z,4083.75
2023-04-30T12:24:07.938Z,4100.63
2023-04-30T12:25:07.966Z,3960.00
2023-04-30T12:26:07.998Z,4016.25
2023-04-30T12:27:08.027Z,3920.63
2023-04-30T12:28:08.052Z,3903.75
2023-04-30T12:29:08.087Z,3898.13
2023-04-30T12:30:08.181Z,3886.88
2023-04-30T12:31:08.143Z,4044.38
2023-04-30T12:32:08.230Z,4151.25
2023-04-30T12:33:08.268Z,4325.63
2023-04-30T12:34:08.234Z,4342.50
2023-04-30T12:35:08.267Z,4196.25
2023-04-30T12:36:08.295Z,4185.00
2023-04-30T12:37:08.322Z,4308.75